sensor_id;sensor_type;location;lat;lon;timestamp;P1;durP1;ratioP1;P2;durP2;ratioP2
55134;SDS011;41031;44.750;11.308;2023-06-19T00:01:08;7.03;;;5.87;;
55134;SDS011;41031;44.750;11.308;2023-06-19T00:03:35;9.43;;;6.70;;
55134;SDS011;41031;44.750;11.308;2023-06-19T00:06:03;6.40;;;5.80;;
55134;SDS011;41031;44.750;11.308;2023-06-19T00:08:31;7.43;;;6.73;;
55134;SDS011;41031;44.750;11.308;2023-06-19T00:10:58;7.60;;;6.03;;
55134;SDS011;41031;44.750;11.308;2023-06-19T00:13:25;7.70;;;6.60;;
55134;SDS011;41031;44.750;11.308;2023-06-19T00:15:52;9.47;;;6.30;;
55134;SDS011;41031;44.750;11.308;2023-06-19T00:18:19;7.90;;;5.67;;
55134;SDS011;41031;44.750;11.308;2023-06-19T00:20:46;7.17;;;5.63;;
55134;SDS011;41031;44.750;11.308;2023-06-19T00:23:13;8.33;;;6.30;;
55134;SDS011;41031;44.750;11.308;2023-06-19T00:25:43;7.63;;;6.27;;
55134;SDS011;41031;44.750;11.308;2023-06-19T00:28:11;8.73;;;6.60;;
55134;SDS011;41031;44.750;11.308;2023-06-19T00:30:41;7.77;;;6.33;;
55134;SDS011;41031;44.750;11.308;2023-06-19T00:33:08;6.80;;;5.90;;
55134;SDS011;41031;44.750;11.308;2023-06-19T00:35:36;8.57;;;6.67;;
55134;SDS011;41031;44.750;11.308;2023-06-19T00:38:04;9.30;;;6.50;;
55134;SDS011;41031;44.750;11.308;2023-06-19T00:40:33;8.10;;;6.30;;
55134;SDS011;41031;44.750;11.308;2023-06-19T00:43:00;8.60;;;6.60;;
55134;SDS011;41031;44.750;11.308;2023-06-19T00:45:28;7.73;;;7.03;;
55134;SDS011;41031;44.750;11.308;2023-06-19T00:47:55;7.80;;;7.00;;
55134;SDS011;41031;44.750;11.308;2023-06-19T00:50:24;9.87;;;7.40;;
55134;SDS011;41031;44.750;11.308;2023-06-19T00:52:52;14.47;;;9.20;;
55134;SDS011;41031;44.750;11.308;2023-06-19T00:55:19;9.33;;;7.63;;
55134;SDS011;41031;44.750;11.308;2023-06-19T00:57:48;10.73;;;7.77;;
55134;SDS011;41031;44.750;11.308;2023-06-19T01:00:16;10.27;;;8.27;;
55134;SDS011;41031;44.750;11.308;2023-06-19T01:02:44;10.00;;;7.70;;
55134;SDS011;41031;44.750;11.308;2023-06-19T01:05:14;10.70;;;7.73;;
55134;SDS011;41031;44.750;11.308;2023-06-19T01:08:03;12.60;;;9.30;;
55134;SDS011;41031;44.750;11.308;2023-06-19T01:10:36;11.90;;;9.00;;
55134;SDS011;41031;44.750;11.308;2023-06-19T01:13:07;10.30;;;8.97;;
55134;SDS011;41031;44.750;11.308;2023-06-19T01:15:38;18.00;;;9.03;;
55134;SDS011;41031;44.750;11.308;2023-06-19T01:18:08;10.13;;;8.33;;
55134;SDS011;41031;44.750;11.308;2023-06-19T01:20:38;9.40;;;8.43;;
55134;SDS011;41031;44.750;11.308;2023-06-19T01:23:07;11.90;;;9.93;;
55134;SDS011;41031;44.750;11.308;2023-06-19T01:25:35;10.20;;;9.20;;
55134;SDS011;41031;44.750;11.308;2023-06-19T01:28:05;13.43;;;9.23;;
55134;SDS011;41031;44.750;11.308;2023-06-19T01:30:40;12.33;;;9.00;;
55134;SDS011;41031;44.750;11.308;2023-06-19T01:35:52;12.03;;;9.87;;
55134;SDS011;41031;44.750;11.308;2023-06-19T01:38:22;17.30;;;10.93;;
55134;SDS011;41031;44.750;11.308;2023-06-19T01:40:53;11.73;;;10.53;;
55134;SDS011;41031;44.750;11.308;2023-06-19T01:43:23;11.93;;;10.53;;
55134;SDS011;41031;44.750;11.308;2023-06-19T01:45:51;11.53;;;10.33;;
55134;SDS011;41031;44.750;11.308;2023-06-19T01:48:18;12.03;;;10.80;;
55134;SDS011;41031;44.750;11.308;2023-06-19T01:50:46;12.53;;;10.87;;
55134;SDS011;41031;44.750;11.308;2023-06-19T01:53:14;13.80;;;10.90;;
55134;SDS011;41031;44.750;11.308;2023-06-19T01:55:42;11.70;;;10.60;;
55134;SDS011;41031;44.750;11.308;2023-06-19T01:58:09;11.43;;;10.33;;
55134;SDS011;41031;44.750;11.308;2023-06-19T02:00:36;15.63;;;11.37;;
55134;SDS011;41031;44.750;11.308;2023-06-19T02:03:09;13.70;;;12.20;;
55134;SDS011;41031;44.750;11.308;2023-06-19T02:05:36;14.93;;;11.80;;
55134;SDS011;41031;44.750;11.308;2023-06-19T02:08:06;13.57;;;12.17;;
55134;SDS011;41031;44.750;11.308;2023-06-19T02:10:35;13.83;;;12.23;;
55134;SDS011;41031;44.750;11.308;2023-06-19T02:13:03;18.73;;;13.50;;
55134;SDS011;41031;44.750;11.308;2023-06-19T02:15:30;16.57;;;13.10;;
55134;SDS011;41031;44.750;11.308;2023-06-19T02:17:57;15.67;;;13.70;;
55134;SDS011;41031;44.750;11.308;2023-06-19T02:20:24;16.13;;;13.00;;
55134;SDS011;41031;44.750;11.308;2023-06-19T02:22:55;15.10;;;11.47;;
55134;SDS011;41031;44.750;11.308;2023-06-19T02:25:22;16.13;;;12.57;;
55134;SDS011;41031;44.750;11.308;2023-06-19T02:27:49;15.30;;;13.07;;
55134;SDS011;41031;44.750;11.308;2023-06-19T02:30:16;13.97;;;12.57;;
55134;SDS011;41031;44.750;11.308;2023-06-19T02:32:43;15.33;;;12.73;;
55134;SDS011;41031;44.750;11.308;2023-06-19T02:35:10;18.27;;;13.03;;
55134;SDS011;41031;44.750;11.308;2023-06-19T02:37:38;14.27;;;12.63;;
55134;SDS011;41031;44.750;11.308;2023-06-19T02:40:06;19.00;;;13.20;;
55134;SDS011;41031;44.750;11.308;2023-06-19T02:42:35;13.43;;;11.83;;
55134;SDS011;41031;44.750;11.308;2023-06-19T02:45:02;16.27;;;13.63;;
55134;SDS011;41031;44.750;11.308;2023-06-19T02:47:30;15.03;;;13.43;;
55134;SDS011;41031;44.750;11.308;2023-06-19T02:49:58;13.77;;;11.93;;
55134;SDS011;41031;44.750;11.308;2023-06-19T02:52:26;14.90;;;11.83;;
55134;SDS011;41031;44.750;11.308;2023-06-19T02:54:54;14.50;;;11.57;;
55134;SDS011;41031;44.750;11.308;2023-06-19T02:57:21;13.67;;;11.10;;
55134;SDS011;41031;44.750;11.308;2023-06-19T02:59:48;13.10;;;11.67;;
55134;SDS011;41031;44.750;11.308;2023-06-19T03:02:15;12.40;;;11.10;;
55134;SDS011;41031;44.750;11.308;2023-06-19T03:04:43;13.63;;;11.67;;
55134;SDS011;41031;44.750;11.308;2023-06-19T03:07:13;14.20;;;12.53;;
55134;SDS011;41031;44.750;11.308;2023-06-19T03:09:40;14.93;;;12.37;;
55134;SDS011;41031;44.750;11.308;2023-06-19T03:12:08;13.37;;;12.10;;
55134;SDS011;41031;44.750;11.308;2023-06-19T03:14:36;14.73;;;13.03;;
55134;SDS011;41031;44.750;11.308;2023-06-19T03:17:04;15.40;;;11.43;;
55134;SDS011;41031;44.750;11.308;2023-06-19T03:19:31;15.37;;;11.27;;
55134;SDS011;41031;44.750;11.308;2023-06-19T03:21:58;13.00;;;11.70;;
55134;SDS011;41031;44.750;11.308;2023-06-19T03:24:25;12.50;;;11.27;;
55134;SDS011;41031;44.750;11.308;2023-06-19T03:27:01;16.63;;;11.83;;
55134;SDS011;41031;44.750;11.308;2023-06-19T03:29:30;14.83;;;13.07;;
55134;SDS011;41031;44.750;11.308;2023-06-19T03:32:03;13.43;;;12.13;;
55134;SDS011;41031;44.750;11.308;2023-06-19T03:34:33;16.40;;;12.10;;
55134;SDS011;41031;44.750;11.308;2023-06-19T03:37:05;13.80;;;11.37;;
55134;SDS011;41031;44.750;11.308;2023-06-19T03:39:33;12.37;;;11.10;;
55134;SDS011;41031;44.750;11.308;2023-06-19T03:42:05;16.43;;;12.00;;
55134;SDS011;41031;44.750;11.308;2023-06-19T03:44:33;14.30;;;11.57;;
55134;SDS011;41031;44.750;11.308;2023-06-19T03:47:00;12.50;;;10.83;;
55134;SDS011;41031;44.750;11.308;2023-06-19T03:49:27;14.53;;;10.53;;
55134;SDS011;41031;44.750;11.308;2023-06-19T03:51:54;12.23;;;10.37;;
55134;SDS011;41031;44.750;11.308;2023-06-19T03:54:23;13.30;;;10.87;;
55134;SDS011;41031;44.750;11.308;2023-06-19T03:56:51;11.93;;;10.20;;
55134;SDS011;41031;44.750;11.308;2023-06-19T03:59:18;10.77;;;9.67;;
55134;SDS011;41031;44.750;11.308;2023-06-19T04:01:45;12.93;;;9.90;;
55134;SDS011;41031;44.750;11.308;2023-06-19T04:04:12;12.50;;;9.63;;
55134;SDS011;41031;44.750;11.308;2023-06-19T04:06:40;10.43;;;9.40;;
55134;SDS011;41031;44.750;11.308;2023-06-19T04:09:07;10.30;;;9.27;;
55134;SDS011;41031;44.750;11.308;2023-06-19T04:11:36;15.73;;;10.40;;
55134;SDS011;41031;44.750;11.308;2023-06-19T04:14:03;11.07;;;9.93;;
55134;SDS011;41031;44.750;11.308;2023-06-19T04:16:30;14.87;;;9.70;;
55134;SDS011;41031;44.750;11.308;2023-06-19T04:18:57;10.17;;;9.10;;
55134;SDS011;41031;44.750;11.308;2023-06-19T04:21:25;11.10;;;9.93;;
55134;SDS011;41031;44.750;11.308;2023-06-19T04:23:52;11.03;;;9.43;;
55134;SDS011;41031;44.750;11.308;2023-06-19T04:26:19;9.60;;;8.60;;
55134;SDS011;41031;44.750;11.308;2023-06-19T04:28:48;12.13;;;8.77;;
55134;SDS011;41031;44.750;11.308;2023-06-19T04:31:15;10.37;;;8.87;;
55134;SDS011;41031;44.750;11.308;2023-06-19T04:33:47;13.27;;;9.10;;
55134;SDS011;41031;44.750;11.308;2023-06-19T04:36:14;9.50;;;8.50;;
55134;SDS011;41031;44.750;11.308;2023-06-19T04:38:42;15.03;;;8.87;;
55134;SDS011;41031;44.750;11.308;2023-06-19T04:41:10;10.50;;;8.77;;
55134;SDS011;41031;44.750;11.308;2023-06-19T04:43:37;9.27;;;8.23;;
55134;SDS011;41031;44.750;11.308;2023-06-19T04:46:07;11.53;;;8.83;;
55134;SDS011;41031;44.750;11.308;2023-06-19T04:48:35;9.03;;;7.90;;
55134;SDS011;41031;44.750;11.308;2023-06-19T04:51:03;11.13;;;8.53;;
55134;SDS011;41031;44.750;11.308;2023-06-19T04:53:30;8.20;;;7.40;;
55134;SDS011;41031;44.750;11.308;2023-06-19T04:55:57;8.90;;;7.97;;
55134;SDS011;41031;44.750;11.308;2023-06-19T04:58:27;7.70;;;7.00;;
55134;SDS011;41031;44.750;11.308;2023-06-19T05:00:54;10.27;;;7.40;;
55134;SDS011;41031;44.750;11.308;2023-06-19T05:03:21;12.90;;;7.93;;
55134;SDS011;41031;44.750;11.308;2023-06-19T05:05:48;11.90;;;7.53;;
55134;SDS011;41031;44.750;11.308;2023-06-19T05:08:16;11.63;;;7.77;;
55134;SDS011;41031;44.750;11.308;2023-06-19T05:10:43;11.23;;;7.60;;
55134;SDS011;41031;44.750;11.308;2023-06-19T05:13:12;9.53;;;7.47;;
55134;SDS011;41031;44.750;11.308;2023-06-19T05:15:39;7.30;;;6.60;;
55134;SDS011;41031;44.750;11.308;2023-06-19T05:18:06;9.27;;;7.40;;
55134;SDS011;41031;44.750;11.308;2023-06-19T05:20:33;8.37;;;6.47;;
55134;SDS011;41031;44.750;11.308;2023-06-19T05:23:00;7.37;;;6.60;;
55134;SDS011;41031;44.750;11.308;2023-06-19T05:25:27;7.93;;;6.53;;
55134;SDS011;41031;44.750;11.308;2023-06-19T05:27:54;10.10;;;6.60;;
55134;SDS011;41031;44.750;11.308;2023-06-19T05:30:21;9.27;;;6.93;;
55134;SDS011;41031;44.750;11.308;2023-06-19T05:32:49;7.60;;;6.87;;
55134;SDS011;41031;44.750;11.308;2023-06-19T05:35:16;10.73;;;6.33;;
55134;SDS011;41031;44.750;11.308;2023-06-19T05:37:43;8.57;;;6.63;;
55134;SDS011;41031;44.750;11.308;2023-06-19T05:40:10;7.77;;;6.70;;
55134;SDS011;41031;44.750;11.308;2023-06-19T05:42:38;9.87;;;6.73;;
55134;SDS011;41031;44.750;11.308;2023-06-19T05:45:08;9.07;;;6.53;;
55134;SDS011;41031;44.750;11.308;2023-06-19T05:47:35;10.70;;;5.90;;
55134;SDS011;41031;44.750;11.308;2023-06-19T05:50:03;7.80;;;6.47;;
55134;SDS011;41031;44.750;11.308;2023-06-19T05:52:30;6.80;;;6.07;;
55134;SDS011;41031;44.750;11.308;2023-06-19T05:54:57;8.13;;;6.17;;
55134;SDS011;41031;44.750;11.308;2023-06-19T05:57:25;10.43;;;5.83;;
55134;SDS011;41031;44.750;11.308;2023-06-19T05:59:52;7.27;;;5.47;;
55134;SDS011;41031;44.750;11.308;2023-06-19T06:02:19;9.40;;;6.40;;
55134;SDS011;41031;44.750;11.308;2023-06-19T06:04:47;6.00;;;5.40;;
55134;SDS011;41031;44.750;11.308;2023-06-19T06:07:14;7.83;;;5.90;;
55134;SDS011;41031;44.750;11.308;2023-06-19T06:09:41;9.63;;;5.77;;
55134;SDS011;41031;44.750;11.308;2023-06-19T06:12:08;7.60;;;5.80;;
55134;SDS011;41031;44.750;11.308;2023-06-19T06:14:35;10.17;;;5.73;;
55134;SDS011;41031;44.750;11.308;2023-06-19T06:17:02;6.83;;;5.50;;
55134;SDS011;41031;44.750;11.308;2023-06-19T06:19:31;6.40;;;5.70;;
55134;SDS011;41031;44.750;11.308;2023-06-19T06:21:59;7.97;;;5.90;;
55134;SDS011;41031;44.750;11.308;2023-06-19T06:24:26;6.63;;;5.60;;
55134;SDS011;41031;44.750;11.308;2023-06-19T06:26:54;7.80;;;5.63;;
55134;SDS011;41031;44.750;11.308;2023-06-19T06:29:21;6.27;;;5.30;;
55134;SDS011;41031;44.750;11.308;2023-06-19T06:31:48;7.93;;;5.17;;
55134;SDS011;41031;44.750;11.308;2023-06-19T06:34:15;7.57;;;5.63;;
55134;SDS011;41031;44.750;11.308;2023-06-19T06:36:42;6.10;;;5.50;;
55134;SDS011;41031;44.750;11.308;2023-06-19T06:39:29;6.57;;;5.67;;
55134;SDS011;41031;44.750;11.308;2023-06-19T06:41:57;8.83;;;5.60;;
55134;SDS011;41031;44.750;11.308;2023-06-19T06:44:24;5.83;;;5.23;;
55134;SDS011;41031;44.750;11.308;2023-06-19T06:46:51;6.50;;;5.80;;
55134;SDS011;41031;44.750;11.308;2023-06-19T06:49:18;6.30;;;5.00;;
55134;SDS011;41031;44.750;11.308;2023-06-19T06:51:45;7.17;;;5.47;;
55134;SDS011;41031;44.750;11.308;2023-06-19T06:54:12;6.87;;;5.27;;
55134;SDS011;41031;44.750;11.308;2023-06-19T06:56:39;7.07;;;6.37;;
55134;SDS011;41031;44.750;11.308;2023-06-19T06:59:06;6.73;;;5.60;;
55134;SDS011;41031;44.750;11.308;2023-06-19T07:01:33;8.43;;;6.57;;
55134;SDS011;41031;44.750;11.308;2023-06-19T07:04:01;5.77;;;5.23;;
55134;SDS011;41031;44.750;11.308;2023-06-19T07:06:28;8.90;;;5.87;;
55134;SDS011;41031;44.750;11.308;2023-06-19T07:08:55;6.80;;;5.60;;
55134;SDS011;41031;44.750;11.308;2023-06-19T07:11:22;7.20;;;5.40;;
55134;SDS011;41031;44.750;11.308;2023-06-19T07:13:49;5.50;;;5.00;;
55134;SDS011;41031;44.750;11.308;2023-06-19T07:16:16;6.97;;;5.30;;
55134;SDS011;41031;44.750;11.308;2023-06-19T07:18:43;6.53;;;5.10;;
55134;SDS011;41031;44.750;11.308;2023-06-19T07:21:13;6.60;;;5.10;;
55134;SDS011;41031;44.750;11.308;2023-06-19T07:23:41;5.83;;;4.90;;
55134;SDS011;41031;44.750;11.308;2023-06-19T07:26:12;8.13;;;5.17;;
55134;SDS011;41031;44.750;11.308;2023-06-19T07:28:39;6.60;;;5.80;;
55134;SDS011;41031;44.750;11.308;2023-06-19T07:31:06;7.70;;;5.37;;
55134;SDS011;41031;44.750;11.308;2023-06-19T07:33:34;8.33;;;5.47;;
55134;SDS011;41031;44.750;11.308;2023-06-19T07:36:01;6.40;;;4.87;;
55134;SDS011;41031;44.750;11.308;2023-06-19T07:38:29;7.37;;;5.67;;
55134;SDS011;41031;44.750;11.308;2023-06-19T07:40:56;6.57;;;5.83;;
55134;SDS011;41031;44.750;11.308;2023-06-19T07:43:23;8.70;;;5.70;;
55134;SDS011;41031;44.750;11.308;2023-06-19T07:45:50;6.50;;;5.23;;
55134;SDS011;41031;44.750;11.308;2023-06-19T07:48:18;9.53;;;5.60;;
55134;SDS011;41031;44.750;11.308;2023-06-19T07:50:45;10.97;;;5.60;;
55134;SDS011;41031;44.750;11.308;2023-06-19T07:53:12;6.73;;;5.43;;
55134;SDS011;41031;44.750;11.308;2023-06-19T07:55:39;6.03;;;5.10;;
55134;SDS011;41031;44.750;11.308;2023-06-19T07:58:07;8.23;;;5.80;;
55134;SDS011;41031;44.750;11.308;2023-06-19T08:00:34;11.47;;;5.50;;
55134;SDS011;41031;44.750;11.308;2023-06-19T08:03:02;5.50;;;4.83;;
55134;SDS011;41031;44.750;11.308;2023-06-19T08:05:29;9.07;;;4.97;;
55134;SDS011;41031;44.750;11.308;2023-06-19T08:07:56;7.20;;;4.83;;
55134;SDS011;41031;44.750;11.308;2023-06-19T08:10:25;6.07;;;4.57;;
55134;SDS011;41031;44.750;11.308;2023-06-19T08:12:53;11.03;;;5.20;;
55134;SDS011;41031;44.750;11.308;2023-06-19T08:15:20;5.67;;;5.03;;
55134;SDS011;41031;44.750;11.308;2023-06-19T08:17:47;7.87;;;4.77;;
55134;SDS011;41031;44.750;11.308;2023-06-19T08:20:15;6.00;;;5.40;;
55134;SDS011;41031;44.750;11.308;2023-06-19T08:22:42;7.20;;;5.17;;
55134;SDS011;41031;44.750;11.308;2023-06-19T08:25:09;7.07;;;5.20;;
55134;SDS011;41031;44.750;11.308;2023-06-19T08:27:36;6.60;;;5.57;;
55134;SDS011;41031;44.750;11.308;2023-06-19T08:30:03;8.50;;;5.27;;
55134;SDS011;41031;44.750;11.308;2023-06-19T08:32:31;7.30;;;5.23;;
55134;SDS011;41031;44.750;11.308;2023-06-19T08:34:58;6.23;;;4.70;;
55134;SDS011;41031;44.750;11.308;2023-06-19T08:37:25;8.97;;;4.80;;
55134;SDS011;41031;44.750;11.308;2023-06-19T08:39:52;6.63;;;5.07;;
55134;SDS011;41031;44.750;11.308;2023-06-19T08:42:19;5.73;;;4.93;;
55134;SDS011;41031;44.750;11.308;2023-06-19T08:44:46;8.50;;;5.33;;
55134;SDS011;41031;44.750;11.308;2023-06-19T08:47:13;6.67;;;4.83;;
55134;SDS011;41031;44.750;11.308;2023-06-19T08:49:40;6.27;;;4.47;;
55134;SDS011;41031;44.750;11.308;2023-06-19T08:52:07;6.70;;;5.33;;
55134;SDS011;41031;44.750;11.308;2023-06-19T08:54:34;5.30;;;4.80;;
55134;SDS011;41031;44.750;11.308;2023-06-19T08:57:10;7.33;;;4.50;;
55134;SDS011;41031;44.750;11.308;2023-06-19T08:59:39;6.17;;;5.27;;
55134;SDS011;41031;44.750;11.308;2023-06-19T09:02:06;7.87;;;5.17;;
55134;SDS011;41031;44.750;11.308;2023-06-19T09:04:33;5.67;;;4.70;;
55134;SDS011;41031;44.750;11.308;2023-06-19T09:07:02;11.03;;;5.13;;
55134;SDS011;41031;44.750;11.308;2023-06-19T09:09:49;6.47;;;5.50;;
55134;SDS011;41031;44.750;11.308;2023-06-19T09:12:15;5.40;;;4.90;;
55134;SDS011;41031;44.750;11.308;2023-06-19T09:14:55;9.10;;;5.03;;
55134;SDS011;41031;44.750;11.308;2023-06-19T09:17:22;4.77;;;4.37;;
55134;SDS011;41031;44.750;11.308;2023-06-19T09:19:54;6.60;;;4.97;;
55134;SDS011;41031;44.750;11.308;2023-06-19T09:22:22;4.90;;;4.60;;
55134;SDS011;41031;44.750;11.308;2023-06-19T09:24:51;6.10;;;4.50;;
55134;SDS011;41031;44.750;11.308;2023-06-19T09:27:19;5.73;;;4.50;;
55134;SDS011;41031;44.750;11.308;2023-06-19T09:29:47;5.27;;;4.77;;
55134;SDS011;41031;44.750;11.308;2023-06-19T09:34:52;7.53;;;5.23;;
55134;SDS011;41031;44.750;11.308;2023-06-19T09:37:24;8.13;;;4.77;;
55134;SDS011;41031;44.750;11.308;2023-06-19T09:40:00;8.10;;;5.30;;
55134;SDS011;41031;44.750;11.308;2023-06-19T09:42:37;5.23;;;4.83;;
55134;SDS011;41031;44.750;11.308;2023-06-19T09:45:13;6.40;;;5.07;;
55134;SDS011;41031;44.750;11.308;2023-06-19T09:47:46;7.27;;;4.90;;
55134;SDS011;41031;44.750;11.308;2023-06-19T09:50:16;4.40;;;3.97;;
55134;SDS011;41031;44.750;11.308;2023-06-19T09:52:47;5.43;;;4.57;;
55134;SDS011;41031;44.750;11.308;2023-06-19T09:55:18;5.17;;;4.67;;
55134;SDS011;41031;44.750;11.308;2023-06-19T09:57:45;7.63;;;4.47;;
55134;SDS011;41031;44.750;11.308;2023-06-19T10:00:15;5.43;;;4.93;;
55134;SDS011;41031;44.750;11.308;2023-06-19T10:02:48;5.37;;;4.80;;
55134;SDS011;41031;44.750;11.308;2023-06-19T10:05:16;5.47;;;4.63;;
55134;SDS011;41031;44.750;11.308;2023-06-19T10:07:45;5.10;;;4.60;;
55134;SDS011;41031;44.750;11.308;2023-06-19T10:10:23;4.57;;;4.27;;
55134;SDS011;41031;44.750;11.308;2023-06-19T10:12:53;6.40;;;4.67;;
55134;SDS011;41031;44.750;11.308;2023-06-19T10:15:23;5.87;;;4.70;;
55134;SDS011;41031;44.750;11.308;2023-06-19T10:18:01;5.73;;;4.43;;
55134;SDS011;41031;44.750;11.308;2023-06-19T10:22:59;6.27;;;5.00;;
55134;SDS011;41031;44.750;11.308;2023-06-19T10:25:29;5.00;;;4.60;;
55134;SDS011;41031;44.750;11.308;2023-06-19T10:27:59;5.23;;;4.60;;
55134;SDS011;41031;44.750;11.308;2023-06-19T10:30:27;6.13;;;5.10;;
55134;SDS011;41031;44.750;11.308;2023-06-19T10:32:56;5.60;;;4.33;;
55134;SDS011;41031;44.750;11.308;2023-06-19T10:35:24;6.10;;;4.87;;
55134;SDS011;41031;44.750;11.308;2023-06-19T10:37:51;5.13;;;4.73;;
55134;SDS011;41031;44.750;11.308;2023-06-19T10:40:18;4.97;;;4.57;;
55134;SDS011;41031;44.750;11.308;2023-06-19T10:42:46;5.47;;;4.97;;
55134;SDS011;41031;44.750;11.308;2023-06-19T10:45:13;6.13;;;5.00;;
55134;SDS011;41031;44.750;11.308;2023-06-19T10:47:44;5.37;;;4.03;;
55134;SDS011;41031;44.750;11.308;2023-06-19T10:50:12;5.47;;;4.67;;
55134;SDS011;41031;44.750;11.308;2023-06-19T10:52:41;4.97;;;4.47;;
55134;SDS011;41031;44.750;11.308;2023-06-19T10:55:12;5.30;;;4.80;;
55134;SDS011;41031;44.750;11.308;2023-06-19T10:57:40;7.63;;;4.10;;
55134;SDS011;41031;44.750;11.308;2023-06-19T11:00:11;8.37;;;4.80;;
55134;SDS011;41031;44.750;11.308;2023-06-19T11:02:49;4.37;;;4.07;;
55134;SDS011;41031;44.750;11.308;2023-06-19T11:05:18;4.90;;;4.20;;
55134;SDS011;41031;44.750;11.308;2023-06-19T11:10:26;6.50;;;4.73;;
55134;SDS011;41031;44.750;11.308;2023-06-19T11:12:55;5.50;;;4.63;;
55134;SDS011;41031;44.750;11.308;2023-06-19T11:15:30;5.57;;;5.07;;
55134;SDS011;41031;44.750;11.308;2023-06-19T11:17:59;9.63;;;4.50;;
55134;SDS011;41031;44.750;11.308;2023-06-19T11:20:28;4.27;;;3.87;;
55134;SDS011;41031;44.750;11.308;2023-06-19T11:22:56;4.77;;;4.30;;
55134;SDS011;41031;44.750;11.308;2023-06-19T11:25:36;4.87;;;4.43;;
55134;SDS011;41031;44.750;11.308;2023-06-19T11:28:05;4.90;;;4.40;;
55134;SDS011;41031;44.750;11.308;2023-06-19T11:30:41;3.90;;;3.60;;
55134;SDS011;41031;44.750;11.308;2023-06-19T11:33:17;4.90;;;4.40;;
55134;SDS011;41031;44.750;11.308;2023-06-19T11:35:51;5.07;;;4.30;;
55134;SDS011;41031;44.750;11.308;2023-06-19T11:38:23;5.07;;;4.50;;
55134;SDS011;41031;44.750;11.308;2023-06-19T11:40:53;4.80;;;4.40;;
55134;SDS011;41031;44.750;11.308;2023-06-19T11:46:02;4.77;;;4.10;;
55134;SDS011;41031;44.750;11.308;2023-06-19T11:48:31;5.97;;;4.13;;
55134;SDS011;41031;44.750;11.308;2023-06-19T11:50:59;5.03;;;4.40;;
55134;SDS011;41031;44.750;11.308;2023-06-19T11:53:26;4.43;;;4.03;;
55134;SDS011;41031;44.750;11.308;2023-06-19T11:55:53;6.57;;;4.43;;
55134;SDS011;41031;44.750;11.308;2023-06-19T11:58:20;4.40;;;3.63;;
55134;SDS011;41031;44.750;11.308;2023-06-19T12:00:48;4.70;;;4.30;;
55134;SDS011;41031;44.750;11.308;2023-06-19T12:03:15;4.70;;;4.30;;
55134;SDS011;41031;44.750;11.308;2023-06-19T12:05:42;6.07;;;4.37;;
55134;SDS011;41031;44.750;11.308;2023-06-19T12:08:10;5.80;;;4.37;;
55134;SDS011;41031;44.750;11.308;2023-06-19T12:10:37;4.37;;;3.97;;
55134;SDS011;41031;44.750;11.308;2023-06-19T12:13:04;5.87;;;4.37;;
55134;SDS011;41031;44.750;11.308;2023-06-19T12:15:31;4.63;;;4.23;;
55134;SDS011;41031;44.750;11.308;2023-06-19T12:18:02;9.57;;;4.93;;
55134;SDS011;41031;44.750;11.308;2023-06-19T12:20:30;7.53;;;4.10;;
55134;SDS011;41031;44.750;11.308;2023-06-19T12:22:57;5.00;;;4.50;;
55134;SDS011;41031;44.750;11.308;2023-06-19T12:25:24;4.50;;;4.07;;
55134;SDS011;41031;44.750;11.308;2023-06-19T12:27:51;4.33;;;4.03;;
55134;SDS011;41031;44.750;11.308;2023-06-19T12:30:21;4.57;;;4.17;;
55134;SDS011;41031;44.750;11.308;2023-06-19T12:32:49;5.47;;;4.33;;
55134;SDS011;41031;44.750;11.308;2023-06-19T12:35:16;4.57;;;3.80;;
55134;SDS011;41031;44.750;11.308;2023-06-19T12:37:45;5.70;;;4.23;;
55134;SDS011;41031;44.750;11.308;2023-06-19T12:40:12;6.03;;;4.20;;
55134;SDS011;41031;44.750;11.308;2023-06-19T12:42:39;6.70;;;4.67;;
55134;SDS011;41031;44.750;11.308;2023-06-19T12:45:06;5.80;;;3.87;;
55134;SDS011;41031;44.750;11.308;2023-06-19T12:47:34;4.87;;;4.47;;
55134;SDS011;41031;44.750;11.308;2023-06-19T12:50:01;5.07;;;4.63;;
55134;SDS011;41031;44.750;11.308;2023-06-19T12:52:29;5.03;;;3.83;;
55134;SDS011;41031;44.750;11.308;2023-06-19T12:54:57;4.67;;;4.20;;
55134;SDS011;41031;44.750;11.308;2023-06-19T12:57:26;4.60;;;4.20;;
55134;SDS011;41031;44.750;11.308;2023-06-19T12:59:53;6.90;;;4.73;;
55134;SDS011;41031;44.750;11.308;2023-06-19T13:02:20;4.93;;;4.47;;
55134;SDS011;41031;44.750;11.308;2023-06-19T13:04:47;5.27;;;4.77;;
55134;SDS011;41031;44.750;11.308;2023-06-19T13:07:15;4.60;;;4.20;;
55134;SDS011;41031;44.750;11.308;2023-06-19T13:09:42;4.57;;;4.10;;
55134;SDS011;41031;44.750;11.308;2023-06-19T13:12:09;6.53;;;4.10;;
55134;SDS011;41031;44.750;11.308;2023-06-19T13:14:36;6.23;;;4.60;;
55134;SDS011;41031;44.750;11.308;2023-06-19T13:17:04;7.47;;;4.50;;
55134;SDS011;41031;44.750;11.308;2023-06-19T13:19:32;5.10;;;4.23;;
55134;SDS011;41031;44.750;11.308;2023-06-19T13:21:59;5.70;;;4.30;;
55134;SDS011;41031;44.750;11.308;2023-06-19T13:24:26;7.03;;;4.87;;
55134;SDS011;41031;44.750;11.308;2023-06-19T13:26:56;4.70;;;4.30;;
55134;SDS011;41031;44.750;11.308;2023-06-19T13:29:23;8.80;;;4.70;;
55134;SDS011;41031;44.750;11.308;2023-06-19T13:31:50;4.53;;;4.10;;
55134;SDS011;41031;44.750;11.308;2023-06-19T13:34:18;4.67;;;4.07;;
55134;SDS011;41031;44.750;11.308;2023-06-19T13:36:45;5.57;;;4.53;;
55134;SDS011;41031;44.750;11.308;2023-06-19T13:39:13;6.37;;;4.43;;
55134;SDS011;41031;44.750;11.308;2023-06-19T13:41:41;9.87;;;4.17;;
55134;SDS011;41031;44.750;11.308;2023-06-19T13:44:08;4.70;;;4.30;;
55134;SDS011;41031;44.750;11.308;2023-06-19T13:46:35;4.13;;;3.83;;
55134;SDS011;41031;44.750;11.308;2023-06-19T13:49:02;6.00;;;3.97;;
55134;SDS011;41031;44.750;11.308;2023-06-19T13:51:29;5.33;;;3.80;;
55134;SDS011;41031;44.750;11.308;2023-06-19T13:53:56;5.23;;;4.83;;
55134;SDS011;41031;44.750;11.308;2023-06-19T13:56:24;10.40;;;4.20;;
55134;SDS011;41031;44.750;11.308;2023-06-19T13:58:51;4.80;;;4.40;;
55134;SDS011;41031;44.750;11.308;2023-06-19T14:01:18;6.40;;;4.33;;
55134;SDS011;41031;44.750;11.308;2023-06-19T14:03:45;5.53;;;4.13;;
55134;SDS011;41031;44.750;11.308;2023-06-19T14:06:12;4.70;;;4.30;;
55134;SDS011;41031;44.750;11.308;2023-06-19T14:08:39;5.17;;;4.30;;
55134;SDS011;41031;44.750;11.308;2023-06-19T14:11:06;6.40;;;4.27;;
55134;SDS011;41031;44.750;11.308;2023-06-19T14:13:33;4.83;;;4.43;;
55134;SDS011;41031;44.750;11.308;2023-06-19T14:16:01;4.57;;;3.83;;
55134;SDS011;41031;44.750;11.308;2023-06-19T14:18:28;6.00;;;4.20;;
55134;SDS011;41031;44.750;11.308;2023-06-19T14:20:56;4.27;;;3.93;;
55134;SDS011;41031;44.750;11.308;2023-06-19T14:23:23;5.47;;;4.40;;
55134;SDS011;41031;44.750;11.308;2023-06-19T14:25:50;8.07;;;4.30;;
55134;SDS011;41031;44.750;11.308;2023-06-19T14:28:17;5.50;;;4.00;;
55134;SDS011;41031;44.750;11.308;2023-06-19T14:30:44;5.00;;;4.53;;
55134;SDS011;41031;44.750;11.308;2023-06-19T14:33:11;4.70;;;4.10;;
55134;SDS011;41031;44.750;11.308;2023-06-19T14:35:42;6.57;;;4.47;;
55134;SDS011;41031;44.750;11.308;2023-06-19T14:38:12;5.33;;;4.10;;
55134;SDS011;41031;44.750;11.308;2023-06-19T14:40:43;4.90;;;4.20;;
55134;SDS011;41031;44.750;11.308;2023-06-19T14:43:11;4.20;;;3.90;;
55134;SDS011;41031;44.750;11.308;2023-06-19T14:45:38;4.90;;;4.50;;
55134;SDS011;41031;44.750;11.308;2023-06-19T14:48:06;4.97;;;4.57;;